Terminal Aerodrome Forecast
Issued by NWS

Home | Current Version | Previous Version | Text Only | Print | Product List | Glossary On
Versions: 1 2 3 4 5 6 7 8 9 10 11 12 13 14 15 16 17 18
505
FTUS43 KGRB 260520
TAFMTW
TAF
KMTW 260520Z 2606/2706 VRB03KT P6SM SCT060
     FM260900 00000KT 5SM BR SCT060 SCT090
      TEMPO 2609/2613 1 1/2SM BR BKN060 BKN090
     FM261300 00000KT P6SM BKN090 BKN120
     FM261700 14006KT P6SM BKN090
     FM262200 17006KT P6SM VCSH BKN050 BKN080=

USA.gov is the U.S. government's official web portal to all federal, state and local government web resources and services.